Time;durP1;ratioP1;P1;durP2;ratioP2;P2;SDS_P1;SDS_P2;PMS_P1;PMS_P2;Temp;Humidity;BMP_temperature;BMP_pressure;BME280_temperature;BME280_humidity;BME280_pressure;Samples;Min_cycle;Max_cycle;Signal;HPM_P1;HPM_P2
2023/10/21 00:02:24;;;;;;;;;;;18.50;1.00;;;;;;4959231;28;19937;-58
2023/10/21 00:04:51;;;;;;;;;;;18.50;1.00;;;;;;4975236;28;22122;-57
2023/10/21 00:07:18;;;;;;;;;;;18.40;1.00;;;;;;4977211;28;20411;-56
2023/10/21 00:09:45;;;;;;;;;;;18.40;1.00;;;;;;4976724;28;19932;-57
2023/10/21 00:12:12;;;;;;;;;;;18.40;1.00;;;;;;4970662;28;19926;-58
2023/10/21 00:14:39;;;;;;;;;;;18.40;1.00;;;;;;4977425;28;19977;-58
2023/10/21 00:17:05;;;;;;;;;;;18.40;1.00;;;;;;4971414;28;19930;-59
2023/10/21 00:19:34;;;;;;;;;;;18.40;1.00;;;;;;4975684;28;19925;-57
2023/10/21 00:22:01;;;;;;;;;;;18.40;1.00;;;;;;4978657;28;20537;-56
2023/10/21 00:24:27;;;;;;;;;;;18.40;1.00;;;;;;4979015;28;19926;-57
2023/10/21 00:26:54;;;;;;;;;;;18.40;1.00;;;;;;4979763;28;20518;-57
2023/10/21 00:29:21;;;;;;;;;;;18.30;1.00;;;;;;4975645;28;19937;-58
2023/10/21 00:31:48;;;;;;;;;;;18.30;1.00;;;;;;4955828;28;20379;-58
2023/10/21 00:34:14;;;;;;;;;;;18.30;1.00;;;;;;4974715;28;19968;-59
2023/10/21 00:36:41;;;;;;;;;;;18.30;1.00;;;;;;4978396;28;19930;-59
2023/10/21 00:39:11;;;;;;;;;;;18.30;1.00;;;;;;4955655;28;20339;-57
2023/10/21 00:41:38;;;;;;;;;;;18.30;1.00;;;;;;4956661;28;19962;-56
2023/10/21 00:44:05;;;;;;;;;;;18.20;1.00;;;;;;4960837;28;19929;-59
2023/10/21 00:46:32;;;;;;;;;;;18.20;1.00;;;;;;4958297;28;19933;-57
2023/10/21 00:48:59;;;;;;;;;;;18.20;1.00;;;;;;4956867;28;19930;-58
2023/10/21 00:51:26;;;;;;;;;;;18.20;1.00;;;;;;4961162;28;19926;-59
2023/10/21 00:53:54;;;;;;;;;;;18.20;1.00;;;;;;4963075;28;19925;-58
2023/10/21 00:56:21;;;;;;;;;;;18.20;1.00;;;;;;4963075;28;19936;-58
2023/10/21 00:58:49;;;;;;;;;;;18.20;1.00;;;;;;4973480;28;19926;-58
2023/10/21 01:01:16;;;;;;;;;;;18.20;1.00;;;;;;4980430;28;19954;-56
2023/10/21 01:03:43;;;;;;;;;;;18.20;1.00;;;;;;4960397;28;19937;-59
2023/10/21 01:06:10;;;;;;;;;;;18.10;1.00;;;;;;4951647;28;20010;-59
2023/10/21 01:08:43;;;;;;;;;;;18.10;1.00;;;;;;4969987;28;20303;-58
2023/10/21 01:11:10;;;;;;;;;;;18.10;1.00;;;;;;4955597;28;19926;-58
2023/10/21 01:13:37;;;;;;;;;;;18.10;1.00;;;;;;4956955;28;20029;-58
2023/10/21 01:16:04;;;;;;;;;;;18.10;1.00;;;;;;4975920;28;20299;-59
2023/10/21 01:18:36;;;;;;;;;;;18.10;1.00;;;;;;4974641;28;20303;-59
2023/10/21 01:21:02;;;;;;;;;;;18.10;1.00;;;;;;4974713;28;19934;-58
2023/10/21 01:23:30;;;;;;;;;;;18.00;1.00;;;;;;4974891;28;19932;-58
2023/10/21 01:25:57;;;;;;;;;;;18.10;1.00;;;;;;4980281;28;19930;-59
2023/10/21 01:28:24;;;;;;;;;;;18.10;1.00;;;;;;4975201;28;19997;-59
2023/10/21 01:30:50;;;;;;;;;;;18.10;1.00;;;;;;4968463;28;20537;-58
2023/10/21 01:33:17;;;;;;;;;;;18.00;1.00;;;;;;4956576;28;19934;-58
2023/10/21 01:35:44;;;;;;;;;;;18.00;1.00;;;;;;4976486;28;20410;-59
2023/10/21 01:38:11;;;;;;;;;;;18.00;1.00;;;;;;4957353;28;20426;-58
2023/10/21 01:40:38;;;;;;;;;;;18.00;1.00;;;;;;4972496;28;22056;-59
2023/10/21 01:43:05;;;;;;;;;;;18.00;1.00;;;;;;4976692;28;19937;-58
2023/10/21 01:45:34;;;;;;;;;;;18.00;1.00;;;;;;4957708;28;20013;-58
2023/10/21 01:48:02;;;;;;;;;;;18.00;1.00;;;;;;4973357;28;19934;-59
2023/10/21 01:50:30;;;;;;;;;;;17.90;1.00;;;;;;4955438;28;19933;-58
2023/10/21 01:52:58;;;;;;;;;;;17.90;1.00;;;;;;4964481;28;20404;-57
2023/10/21 01:55:25;;;;;;;;;;;17.90;1.00;;;;;;4970351;28;19933;-59
2023/10/21 01:57:52;;;;;;;;;;;17.90;1.00;;;;;;4971816;28;19985;-57
2023/10/21 02:00:18;;;;;;;;;;;17.90;1.00;;;;;;4966671;28;19926;-58
2023/10/21 02:02:52;;;;;;;;;;;17.90;1.00;;;;;;4954150;28;20348;-58
2023/10/21 02:05:19;;;;;;;;;;;17.90;1.00;;;;;;4956711;28;20304;-59
2023/10/21 02:07:47;;;;;;;;;;;17.90;1.00;;;;;;4970935;28;19930;-58
2023/10/21 02:10:14;;;;;;;;;;;17.90;1.00;;;;;;4958114;28;19926;-59
2023/10/21 02:12:40;;;;;;;;;;;17.90;1.00;;;;;;4957463;28;19930;-55
2023/10/21 02:15:11;;;;;;;;;;;17.90;1.00;;;;;;4956692;28;20047;-57
2023/10/21 02:17:39;;;;;;;;;;;17.80;1.00;;;;;;4956468;28;19941;-58
2023/10/21 02:20:06;;;;;;;;;;;17.80;1.00;;;;;;4957666;28;20175;-58
2023/10/21 02:22:33;;;;;;;;;;;17.80;1.00;;;;;;4955327;28;19958;-58
2023/10/21 02:25:00;;;;;;;;;;;17.80;1.00;;;;;;4975606;28;20249;-58
2023/10/21 02:27:40;;;;;;;;;;;17.80;1.00;;;;;;4975962;28;20291;-59
2023/10/21 02:30:10;;;;;;;;;;;17.80;1.00;;;;;;4973273;28;19926;-58
2023/10/21 02:32:40;;;;;;;;;;;17.80;1.00;;;;;;4955547;28;19934;-58
2023/10/21 02:35:08;;;;;;;;;;;17.80;1.00;;;;;;4955199;28;19933;-58
2023/10/21 02:37:35;;;;;;;;;;;17.70;1.00;;;;;;4957940;28;19957;-57
2023/10/21 02:40:03;;;;;;;;;;;17.80;1.00;;;;;;4954121;28;20016;-59
2023/10/21 02:42:30;;;;;;;;;;;17.80;1.00;;;;;;4973506;28;21730;-59
2023/10/21 02:44:57;;;;;;;;;;;17.80;1.00;;;;;;4958665;28;20341;-56
2023/10/21 02:47:24;;;;;;;;;;;17.70;1.00;;;;;;4962678;28;19934;-56
2023/10/21 02:49:51;;;;;;;;;;;17.70;1.00;;;;;;4973977;28;19926;-57
2023/10/21 02:52:18;;;;;;;;;;;17.80;1.00;;;;;;4976767;28;19997;-57
2023/10/21 02:54:45;;;;;;;;;;;17.70;1.00;;;;;;4963019;28;20383;-58
2023/10/21 02:57:11;;;;;;;;;;;17.70;1.00;;;;;;4944170;28;19926;-56
2023/10/21 02:59:38;;;;;;;;;;;17.70;1.00;;;;;;4983713;28;19942;-59
2023/10/21 03:02:06;;;;;;;;;;;17.70;1.00;;;;;;4960844;28;19926;-55
2023/10/21 03:04:35;;;;;;;;;;;17.70;1.00;;;;;;4959050;28;19926;-58
2023/10/21 03:07:03;;;;;;;;;;;17.70;1.00;;;;;;4979492;28;20405;-59
2023/10/21 03:09:30;;;;;;;;;;;17.70;1.00;;;;;;4959889;28;19977;-59
2023/10/21 03:11:57;;;;;;;;;;;17.60;1.00;;;;;;4979109;28;20438;-57
2023/10/21 03:14:24;;;;;;;;;;;17.70;1.00;;;;;;4973989;28;20056;-59
2023/10/21 03:16:50;;;;;;;;;;;17.60;1.00;;;;;;4958071;28;19932;-59
2023/10/21 03:19:18;;;;;;;;;;;17.60;1.00;;;;;;4974388;28;20440;-58
2023/10/21 03:21:45;;;;;;;;;;;17.60;1.00;;;;;;4958273;28;19933;-58
2023/10/21 03:24:12;;;;;;;;;;;17.60;1.00;;;;;;4978942;28;19926;-57
2023/10/21 03:26:38;;;;;;;;;;;17.60;1.00;;;;;;4957789;28;19934;-59
2023/10/21 03:29:05;;;;;;;;;;;17.60;1.00;;;;;;4974163;28;20028;-58
2023/10/21 03:31:32;;;;;;;;;;;17.60;1.00;;;;;;4958077;28;19968;-58
2023/10/21 03:33:59;;;;;;;;;;;17.60;1.00;;;;;;4958884;28;22107;-57
2023/10/21 03:36:26;;;;;;;;;;;17.60;1.00;;;;;;4961879;28;19973;-59
2023/10/21 03:38:53;;;;;;;;;;;17.60;1.00;;;;;;4956479;28;19936;-59
2023/10/21 03:41:20;;;;;;;;;;;17.60;1.00;;;;;;4956568;28;20012;-59
2023/10/21 03:43:46;;;;;;;;;;;17.60;1.00;;;;;;4973625;28;19930;-58
2023/10/21 03:46:17;;;;;;;;;;;17.60;1.00;;;;;;4958036;28;19925;-58
2023/10/21 03:48:44;;;;;;;;;;;17.60;1.00;;;;;;4971413;28;19930;-59
2023/10/21 03:51:11;;;;;;;;;;;17.60;1.00;;;;;;4971646;28;20412;-59
2023/10/21 03:53:43;;;;;;;;;;;17.60;1.00;;;;;;4976100;28;19926;-59
2023/10/21 03:56:10;;;;;;;;;;;17.50;1.00;;;;;;4974835;28;19996;-59
2023/10/21 03:58:37;;;;;;;;;;;17.50;1.00;;;;;;4973162;28;19949;-59
2023/10/21 04:01:05;;;;;;;;;;;17.50;1.00;;;;;;4957972;28;20525;-58
2023/10/21 04:03:32;;;;;;;;;;;17.50;1.00;;;;;;4977094;28;19927;-57
2023/10/21 04:05:59;;;;;;;;;;;17.50;1.00;;;;;;4974845;28;19933;-58
2023/10/21 04:08:27;;;;;;;;;;;17.50;1.00;;;;;;4979194;28;19953;-56
2023/10/21 04:10:54;;;;;;;;;;;17.50;1.00;;;;;;4974974;28;19930;-59
2023/10/21 04:13:21;;;;;;;;;;;17.50;1.00;;;;;;4976999;28;19926;-58
2023/10/21 04:15:49;;;;;;;;;;;17.50;1.00;;;;;;4976145;28;20029;-59
2023/10/21 04:18:17;;;;;;;;;;;17.50;1.00;;;;;;4975866;28;20020;-59
2023/10/21 04:20:44;;;;;;;;;;;17.50;1.00;;;;;;4972955;28;19945;-59
2023/10/21 04:23:12;;;;;;;;;;;17.50;1.00;;;;;;4972174;28;19980;-59
2023/10/21 04:25:39;;;;;;;;;;;17.40;1.00;;;;;;4972424;28;19926;-59
2023/10/21 04:28:05;;;;;;;;;;;17.50;1.00;;;;;;4975265;28;19934;-58
2023/10/21 04:30:32;;;;;;;;;;;17.40;1.00;;;;;;4978688;28;20566;-59
2023/10/21 04:32:59;;;;;;;;;;;17.50;1.00;;;;;;4976797;28;19960;-59
2023/10/21 04:35:26;;;;;;;;;;;17.50;1.00;;;;;;4974063;28;21903;-59
2023/10/21 04:37:53;;;;;;;;;;;17.40;1.00;;;;;;4977619;28;20017;-59
2023/10/21 04:40:20;;;;;;;;;;;17.50;1.00;;;;;;4973464;28;19998;-57
2023/10/21 04:42:46;;;;;;;;;;;17.40;1.00;;;;;;4972363;28;19932;-58
2023/10/21 04:45:13;;;;;;;;;;;17.40;1.00;;;;;;4977251;28;20122;-59
2023/10/21 04:47:40;;;;;;;;;;;17.40;1.00;;;;;;4976843;28;19936;-59
2023/10/21 04:50:07;;;;;;;;;;;17.40;1.00;;;;;;4979894;28;19932;-58
2023/10/21 04:52:35;;;;;;;;;;;17.40;1.00;;;;;;4976481;28;19961;-57
2023/10/21 04:55:02;;;;;;;;;;;17.40;1.00;;;;;;4975415;28;19930;-59
2023/10/21 04:57:30;;;;;;;;;;;17.40;1.00;;;;;;4969205;28;19926;-58
2023/10/21 04:59:57;;;;;;;;;;;17.40;1.00;;;;;;4978428;28;19930;-59
2023/10/21 05:02:24;;;;;;;;;;;17.40;1.00;;;;;;4958130;28;20557;-58
2023/10/21 05:04:50;;;;;;;;;;;17.40;1.00;;;;;;4973409;28;20691;-56
2023/10/21 05:07:17;;;;;;;;;;;17.40;1.00;;;;;;4975716;28;20292;-57
2023/10/21 05:09:44;;;;;;;;;;;17.40;1.00;;;;;;4977718;28;20362;-59
2023/10/21 05:12:11;;;;;;;;;;;17.40;1.00;;;;;;4977440;28;19925;-58
2023/10/21 05:14:38;;;;;;;;;;;17.40;1.00;;;;;;4970716;28;20020;-59
2023/10/21 05:17:05;;;;;;;;;;;17.40;1.00;;;;;;4955376;28;19925;-59
2023/10/21 05:19:32;;;;;;;;;;;17.40;1.00;;;;;;4977130;28;19926;-59
2023/10/21 05:21:59;;;;;;;;;;;17.40;1.00;;;;;;4972811;28;19934;-59
2023/10/21 05:24:27;;;;;;;;;;;17.30;1.00;;;;;;4975606;28;19992;-59
2023/10/21 05:26:54;;;;;;;;;;;17.30;1.00;;;;;;4976956;28;19925;-58
2023/10/21 05:29:21;;;;;;;;;;;17.40;1.00;;;;;;4972935;28;19926;-59
2023/10/21 05:31:49;;;;;;;;;;;17.30;1.00;;;;;;4977209;28;19926;-58
2023/10/21 05:34:19;;;;;;;;;;;17.30;1.00;;;;;;4976524;28;20032;-58
2023/10/21 05:36:46;;;;;;;;;;;17.30;1.00;;;;;;4975440;28;20567;-57
2023/10/21 05:39:13;;;;;;;;;;;17.30;1.00;;;;;;4971084;28;20367;-58
2023/10/21 05:41:40;;;;;;;;;;;17.30;1.00;;;;;;4975427;28;19930;-59
2023/10/21 05:44:08;;;;;;;;;;;17.30;1.00;;;;;;4974522;28;19926;-59
2023/10/21 05:46:34;;;;;;;;;;;17.30;1.00;;;;;;4974515;28;20025;-57
2023/10/21 05:49:02;;;;;;;;;;;17.30;1.00;;;;;;4971790;28;20032;-58
2023/10/21 05:51:29;;;;;;;;;;;17.30;1.00;;;;;;4973715;28;19933;-59
2023/10/21 05:53:57;;;;;;;;;;;17.30;1.00;;;;;;4975450;28;19973;-57
2023/10/21 05:56:24;;;;;;;;;;;17.30;1.00;;;;;;4981475;28;19988;-59
2023/10/21 05:58:51;;;;;;;;;;;17.30;1.00;;;;;;4977346;28;19926;-58
2023/10/21 06:01:17;;;;;;;;;;;17.30;1.00;;;;;;4976103;28;19926;-59
2023/10/21 06:03:44;;;;;;;;;;;17.30;1.00;;;;;;4973938;28;19930;-59
2023/10/21 06:06:11;;;;;;;;;;;17.30;1.00;;;;;;4969598;28;19995;-59
2023/10/21 06:08:38;;;;;;;;;;;17.30;1.00;;;;;;4974439;28;19926;-59
2023/10/21 06:11:05;;;;;;;;;;;17.30;1.00;;;;;;4974369;28;19929;-56
2023/10/21 06:13:32;;;;;;;;;;;17.30;1.00;;;;;;4955812;28;20324;-58
2023/10/21 06:15:59;;;;;;;;;;;17.30;1.00;;;;;;4978767;28;20017;-59
2023/10/21 06:18:25;;;;;;;;;;;17.30;1.00;;;;;;4972221;28;19934;-59
2023/10/21 06:20:53;;;;;;;;;;;17.30;1.00;;;;;;4976469;28;19969;-58
2023/10/21 06:23:20;;;;;;;;;;;17.30;1.00;;;;;;4977403;28;19926;-59
2023/10/21 06:25:47;;;;;;;;;;;17.20;1.00;;;;;;4978003;28;19981;-58
2023/10/21 06:28:14;;;;;;;;;;;17.30;1.00;;;;;;4976318;28;20524;-59
2023/10/21 06:30:41;;;;;;;;;;;17.30;1.00;;;;;;4974604;28;19926;-57
2023/10/21 06:33:11;;;;;;;;;;;17.20;1.00;;;;;;4973806;28;19938;-58
2023/10/21 06:35:38;;;;;;;;;;;17.20;1.00;;;;;;4977642;28;19930;-58
2023/10/21 06:38:06;;;;;;;;;;;17.20;1.00;;;;;;4977651;28;19926;-58
2023/10/21 06:40:34;;;;;;;;;;;17.20;1.00;;;;;;4978934;28;19930;-58
2023/10/21 06:43:21;;;;;;;;;;;17.20;1.00;;;;;;4973597;28;19930;-57
2023/10/21 06:45:48;;;;;;;;;;;17.20;1.00;;;;;;4977382;28;20357;-58
2023/10/21 06:48:15;;;;;;;;;;;17.20;1.00;;;;;;4972174;28;19926;-58
2023/10/21 06:50:42;;;;;;;;;;;17.20;1.00;;;;;;4980418;28;20272;-57
2023/10/21 06:53:10;;;;;;;;;;;17.20;1.00;;;;;;4976281;28;19936;-58
2023/10/21 06:55:41;;;;;;;;;;;17.20;1.00;;;;;;4974984;28;19981;-57
2023/10/21 06:58:08;;;;;;;;;;;17.20;1.00;;;;;;4981161;28;20402;-58
2023/10/21 07:00:35;;;;;;;;;;;17.20;1.00;;;;;;4978214;28;20024;-58
2023/10/21 07:03:03;;;;;;;;;;;17.20;1.00;;;;;;4977866;28;19930;-59
2023/10/21 07:05:30;;;;;;;;;;;17.20;1.00;;;;;;4977574;28;19945;-56
2023/10/21 07:07:57;;;;;;;;;;;17.20;1.00;;;;;;4959879;28;20292;-57
2023/10/21 07:10:24;;;;;;;;;;;17.20;1.00;;;;;;4974919;28;20032;-58
2023/10/21 07:12:51;;;;;;;;;;;17.20;1.00;;;;;;4969294;28;20291;-58
2023/10/21 07:15:19;;;;;;;;;;;17.20;1.00;;;;;;4972361;28;19930;-58
2023/10/21 07:17:46;;;;;;;;;;;17.20;1.00;;;;;;4975558;28;20366;-53
2023/10/21 07:20:13;;;;;;;;;;;17.20;1.00;;;;;;4979458;28;19926;-57
2023/10/21 07:22:47;;;;;;;;;;;17.20;1.00;;;;;;4951411;28;20318;-58
2023/10/21 07:25:15;;;;;;;;;;;17.20;1.00;;;;;;4976879;28;20410;-57
2023/10/21 07:27:42;;;;;;;;;;;17.20;1.00;;;;;;4957687;28;19952;-58
2023/10/21 07:30:09;;;;;;;;;;;17.20;1.00;;;;;;4973632;28;20400;-57
2023/10/21 07:32:36;;;;;;;;;;;17.20;1.00;;;;;;4975211;28;19942;-56
2023/10/21 07:35:04;;;;;;;;;;;17.20;1.00;;;;;;4969047;28;20408;-58
2023/10/21 07:37:31;;;;;;;;;;;17.20;1.00;;;;;;4973446;28;20029;-58
2023/10/21 07:39:58;;;;;;;;;;;17.20;1.00;;;;;;4971838;28;20004;-59
2023/10/21 07:42:25;;;;;;;;;;;17.20;1.00;;;;;;4977194;28;19990;-56
2023/10/21 07:44:53;;;;;;;;;;;17.20;1.00;;;;;;4975490;28;20343;-58
2023/10/21 07:47:20;;;;;;;;;;;17.20;1.00;;;;;;4975111;28;19926;-59
2023/10/21 07:49:47;;;;;;;;;;;17.20;1.00;;;;;;4968498;28;19957;-59
2023/10/21 07:52:13;;;;;;;;;;;17.20;1.00;;;;;;4973052;28;19965;-58
2023/10/21 07:54:40;;;;;;;;;;;17.20;1.00;;;;;;4977052;28;19925;-57
2023/10/21 07:57:08;;;;;;;;;;;17.20;1.00;;;;;;4977416;28;20017;-58
2023/10/21 07:59:35;;;;;;;;;;;17.20;1.00;;;;;;4976987;28;20392;-58
2023/10/21 08:02:01;;;;;;;;;;;17.20;1.00;;;;;;4971795;28;19945;-57
2023/10/21 08:04:28;;;;;;;;;;;17.20;1.00;;;;;;4976936;28;20315;-58
2023/10/21 08:06:55;;;;;;;;;;;17.20;1.00;;;;;;4973424;28;19930;-58
2023/10/21 08:09:22;;;;;;;;;;;17.20;1.00;;;;;;4979063;28;19930;-58
2023/10/21 08:11:49;;;;;;;;;;;17.20;1.00;;;;;;4975333;28;19934;-58
2023/10/21 08:14:16;;;;;;;;;;;17.20;1.00;;;;;;4975700;28;19948;-59
2023/10/21 08:16:46;;;;;;;;;;;17.20;1.00;;;;;;4974479;28;20487;-58
2023/10/21 08:19:13;;;;;;;;;;;17.20;1.00;;;;;;4976662;28;19984;-58
2023/10/21 08:21:40;;;;;;;;;;;17.20;1.00;;;;;;4973086;28;19926;-58
2023/10/21 08:24:07;;;;;;;;;;;17.20;1.00;;;;;;4971596;28;19938;-59
2023/10/21 08:26:35;;;;;;;;;;;17.20;1.00;;;;;;4973778;28;19930;-59
2023/10/21 08:29:02;;;;;;;;;;;17.20;1.00;;;;;;4975910;28;20000;-59
2023/10/21 08:31:29;;;;;;;;;;;17.20;1.00;;;;;;4975945;28;19973;-59
2023/10/21 08:33:56;;;;;;;;;;;17.20;1.00;;;;;;4976660;28;19933;-59
2023/10/21 08:36:23;;;;;;;;;;;17.20;1.00;;;;;;4977444;28;19930;-59
2023/10/21 08:38:50;;;;;;;;;;;17.20;1.00;;;;;;4973458;28;20029;-57
2023/10/21 08:41:17;;;;;;;;;;;17.20;1.00;;;;;;4974021;28;19929;-58
2023/10/21 08:43:47;;;;;;;;;;;17.20;1.00;;;;;;4972559;28;19926;-58
2023/10/21 08:46:15;;;;;;;;;;;17.20;1.00;;;;;;4971251;28;19941;-59
2023/10/21 08:48:46;;;;;;;;;;;17.20;1.00;;;;;;4968784;28;19930;-58
2023/10/21 08:51:17;;;;;;;;;;;17.20;1.00;;;;;;4978047;28;19930;-59
2023/10/21 08:53:46;;;;;;;;;;;17.20;1.00;;;;;;4974713;28;19932;-57
2023/10/21 08:56:13;;;;;;;;;;;17.20;1.00;;;;;;4975414;28;19937;-59
2023/10/21 08:58:43;;;;;;;;;;;17.20;1.00;;;;;;4972043;28;19930;-59
2023/10/21 09:01:11;;;;;;;;;;;17.20;1.00;;;;;;4972918;28;19930;-59
2023/10/21 09:03:37;;;;;;;;;;;17.20;1.00;;;;;;4978550;28;20013;-59
2023/10/21 09:06:06;;;;;;;;;;;17.20;1.00;;;;;;4976407;28;20487;-59
2023/10/21 09:08:34;;;;;;;;;;;17.20;1.00;;;;;;4972711;28;19936;-59
2023/10/21 09:11:05;;;;;;;;;;;17.20;1.00;;;;;;4978792;28;19925;-59
2023/10/21 09:13:35;;;;;;;;;;;17.20;1.00;;;;;;4976886;28;19929;-59
2023/10/21 09:16:04;;;;;;;;;;;17.20;1.00;;;;;;4971134;28;20304;-59
2023/10/21 09:18:34;;;;;;;;;;;17.20;1.00;;;;;;4972810;28;19930;-59
2023/10/21 09:21:02;;;;;;;;;;;17.20;1.00;;;;;;4967916;28;20336;-58
2023/10/21 09:23:29;;;;;;;;;;;17.20;1.00;;;;;;4973113;28;19930;-59
2023/10/21 09:25:56;;;;;;;;;;;17.30;1.00;;;;;;4972162;28;19930;-58
2023/10/21 09:28:24;;;;;;;;;;;17.20;1.00;;;;;;4975549;28;20037;-58
2023/10/21 09:30:58;;;;;;;;;;;17.30;1.00;;;;;;4976241;28;20269;-59
2023/10/21 09:33:25;;;;;;;;;;;17.20;1.00;;;;;;4969221;28;20013;-59
2023/10/21 09:36:00;;;;;;;;;;;17.30;1.00;;;;;;4972664;28;19976;-59
2023/10/21 09:38:49;;;;;;;;;;;17.20;1.00;;;;;;4971310;28;20380;-59
2023/10/21 09:41:17;;;;;;;;;;;17.20;1.00;;;;;;4974186;28;19933;-59
2023/10/21 09:43:45;;;;;;;;;;;17.30;1.00;;;;;;4969230;28;19926;-59
2023/10/21 09:46:13;;;;;;;;;;;17.30;1.00;;;;;;4973899;28;19937;-59
2023/10/21 09:48:43;;;;;;;;;;;17.20;1.00;;;;;;4973774;28;19925;-59
2023/10/21 09:51:13;;;;;;;;;;;17.30;1.00;;;;;;4971081;28;19926;-59
2023/10/21 09:53:45;;;;;;;;;;;17.30;1.00;;;;;;4974733;28;19933;-59
2023/10/21 09:56:14;;;;;;;;;;;17.20;1.00;;;;;;4972611;28;20012;-57
2023/10/21 09:58:43;;;;;;;;;;;17.20;1.00;;;;;;4969816;28;20439;-58
2023/10/21 10:01:10;;;;;;;;;;;17.30;1.00;;;;;;4971255;28;19926;-59
2023/10/21 10:03:39;;;;;;;;;;;17.30;1.00;;;;;;4976341;28;19929;-57
2023/10/21 10:06:07;;;;;;;;;;;17.30;1.00;;;;;;4972332;28;20293;-56
2023/10/21 10:08:34;;;;;;;;;;;17.20;1.00;;;;;;4973713;28;19937;-57
2023/10/21 10:11:15;;;;;;;;;;;17.30;1.00;;;;;;4971825;28;19934;-59
2023/10/21 10:13:46;;;;;;;;;;;17.30;1.00;;;;;;4971519;28;20356;-58
2023/10/21 10:16:21;;;;;;;;;;;17.20;1.00;;;;;;4975003;28;20458;-59
2023/10/21 10:18:50;;;;;;;;;;;17.30;1.00;;;;;;4972908;28;20315;-57
2023/10/21 10:21:20;;;;;;;;;;;17.30;1.00;;;;;;4974165;28;19969;-59
2023/10/21 10:23:49;;;;;;;;;;;17.30;1.00;;;;;;4976191;28;19942;-59
2023/10/21 10:26:26;;;;;;;;;;;17.30;1.00;;;;;;4972798;28;19933;-59
2023/10/21 10:28:52;;;;;;;;;;;17.30;1.00;;;;;;4975497;28;19961;-59
2023/10/21 10:31:20;;;;;;;;;;;17.20;1.00;;;;;;4971255;28;19926;-57
2023/10/21 10:33:51;;;;;;;;;;;17.30;1.00;;;;;;4972888;28;19930;-57
2023/10/21 10:36:26;;;;;;;;;;;17.30;1.00;;;;;;4972129;28;19972;-59
2023/10/21 10:38:54;;;;;;;;;;;17.20;1.00;;;;;;4972442;28;19937;-59
2023/10/21 10:41:21;;;;;;;;;;;17.20;1.00;;;;;;4971551;28;19937;-59
2023/10/21 10:43:54;;;;;;;;;;;17.30;1.00;;;;;;4971817;28;20462;-59
2023/10/21 10:46:22;;;;;;;;;;;17.30;1.00;;;;;;4969561;28;20813;-59
2023/10/21 10:48:52;;;;;;;;;;;17.30;1.00;;;;;;4973141;28;20029;-58
2023/10/21 10:51:23;;;;;;;;;;;17.30;1.00;;;;;;4969956;28;19930;-59
2023/10/21 10:53:57;;;;;;;;;;;17.20;1.00;;;;;;4970887;28;19970;-57
2023/10/21 10:56:25;;;;;;;;;;;17.30;1.00;;;;;;4972781;28;20328;-59
2023/10/21 10:58:52;;;;;;;;;;;17.20;1.00;;;;;;4971566;28;19937;-58
2023/10/21 11:01:20;;;;;;;;;;;17.30;1.00;;;;;;4969096;28;19926;-59
2023/10/21 11:03:57;;;;;;;;;;;17.30;1.00;;;;;;4971479;28;20017;-56
2023/10/21 11:06:28;;;;;;;;;;;17.20;1.00;;;;;;4977397;28;21778;-59
2023/10/21 11:08:56;;;;;;;;;;;17.30;1.00;;;;;;4972768;28;20270;-59
2023/10/21 11:11:23;;;;;;;;;;;17.30;1.00;;;;;;4977625;28;19934;-59
2023/10/21 11:13:50;;;;;;;;;;;17.30;1.00;;;;;;4957142;28;19997;-59
2023/10/21 11:16:18;;;;;;;;;;;17.30;1.00;;;;;;4974912;28;19929;-59
2023/10/21 11:18:45;;;;;;;;;;;17.30;1.00;;;;;;4978012;28;19941;-59
2023/10/21 11:21:11;;;;;;;;;;;17.30;1.00;;;;;;4978305;28;19930;-59
2023/10/21 11:23:39;;;;;;;;;;;17.30;1.00;;;;;;4978857;28;19925;-59
2023/10/21 11:26:09;;;;;;;;;;;17.30;1.00;;;;;;4974950;28;19934;-59
2023/10/21 11:28:37;;;;;;;;;;;17.30;1.00;;;;;;4975324;28;19926;-59
2023/10/21 11:31:04;;;;;;;;;;;17.30;1.00;;;;;;4972883;28;20394;-59
2023/10/21 11:33:31;;;;;;;;;;;17.30;1.00;;;;;;4975343;28;19930;-59
2023/10/21 11:35:59;;;;;;;;;;;17.30;1.00;;;;;;4973919;28;19930;-56
2023/10/21 11:38:28;;;;;;;;;;;17.30;1.00;;;;;;4972961;28;19941;-59
2023/10/21 11:40:56;;;;;;;;;;;17.30;1.00;;;;;;4976440;28;19946;-58
2023/10/21 11:43:25;;;;;;;;;;;17.30;1.00;;;;;;4978919;28;19927;-58
2023/10/21 11:45:54;;;;;;;;;;;17.30;1.00;;;;;;4958237;28;19980;-59
2023/10/21 11:48:20;;;;;;;;;;;17.30;1.00;;;;;;4978657;28;19926;-58
2023/10/21 11:50:47;;;;;;;;;;;17.30;1.00;;;;;;4973795;28;19936;-59
2023/10/21 11:53:14;;;;;;;;;;;17.30;1.00;;;;;;4974475;28;20402;-57
2023/10/21 12:01:49;;;;;;;;;;;17.30;1.00;;;;;;4973243;28;19941;-58
2023/10/21 12:10:15;;;;;;;;;;;17.30;1.00;;;;;;4971181;28;19941;-56
2023/10/21 12:20:23;;;;;;;;;;;17.30;1.00;;;;;;4980112;28;20382;-57
2023/10/21 12:38:39;;;;;;;;;;;17.30;1.00;;;;;;4941388;28;19931;-58
2023/10/21 12:43:39;;;;;;;;;;;17.40;1.00;;;;;;4973698;28;20415;-57
2023/10/21 12:46:55;;;;;;;;;;;17.30;1.00;;;;;;4978811;28;19926;-59
2023/10/21 12:48:57;;;;;;;;;;;17.30;1.00;;;;;;4964157;28;19925;-57
2023/10/21 12:51:40;;;;;;;;;;;17.30;1.00;;;;;;4973738;28;20012;-59
2023/10/21 12:54:10;;;;;;;;;;;17.40;1.00;;;;;;4973114;28;19930;-58
2023/10/21 12:56:41;;;;;;;;;;;17.40;1.00;;;;;;4973946;28;19965;-58
2023/10/21 12:59:07;;;;;;;;;;;17.40;1.00;;;;;;4971311;28;19973;-58
2023/10/21 13:01:34;;;;;;;;;;;17.40;1.00;;;;;;4973655;28;19956;-58
2023/10/21 13:04:01;;;;;;;;;;;17.40;1.00;;;;;;4976962;28;19977;-56
2023/10/21 13:06:28;;;;;;;;;;;17.40;1.00;;;;;;4973200;28;19933;-58
2023/10/21 13:08:56;;;;;;;;;;;17.40;1.00;;;;;;4979396;28;20008;-59
2023/10/21 13:11:22;;;;;;;;;;;17.40;1.00;;;;;;4971173;28;19926;-57
2023/10/21 13:13:54;;;;;;;;;;;17.40;1.00;;;;;;4971426;28;19930;-58
2023/10/21 13:16:20;;;;;;;;;;;17.40;1.00;;;;;;4976003;28;19933;-57
2023/10/21 13:18:48;;;;;;;;;;;17.40;1.00;;;;;;4972059;28;19926;-58
2023/10/21 13:21:17;;;;;;;;;;;17.40;1.00;;;;;;4971351;28;20392;-58
2023/10/21 13:23:44;;;;;;;;;;;17.40;1.00;;;;;;4973115;28;19991;-59
2023/10/21 13:26:12;;;;;;;;;;;17.40;1.00;;;;;;4956859;28;19993;-56
2023/10/21 13:28:38;;;;;;;;;;;17.40;1.00;;;;;;4973905;28;19926;-57
2023/10/21 13:31:06;;;;;;;;;;;17.40;1.00;;;;;;4972442;28;19981;-58
2023/10/21 13:33:33;;;;;;;;;;;17.40;1.00;;;;;;4972923;28;19937;-57
2023/10/21 13:36:00;;;;;;;;;;;17.40;1.00;;;;;;4971696;28;20037;-54
2023/10/21 13:38:27;;;;;;;;;;;17.40;1.00;;;;;;4973040;28;19926;-58
2023/10/21 13:40:54;;;;;;;;;;;17.40;1.00;;;;;;4971647;28;19940;-57
2023/10/21 13:43:21;;;;;;;;;;;17.40;1.00;;;;;;4976155;28;19933;-59
2023/10/21 13:45:47;;;;;;;;;;;17.40;1.00;;;;;;4971066;28;19948;-55
2023/10/21 13:48:14;;;;;;;;;;;17.40;1.00;;;;;;4973327;28;19981;-58
2023/10/21 13:50:41;;;;;;;;;;;17.40;1.00;;;;;;4975337;28;20299;-58
2023/10/21 13:53:11;;;;;;;;;;;17.40;1.00;;;;;;4972855;28;19930;-57
2023/10/21 13:55:44;;;;;;;;;;;17.40;1.00;;;;;;4971958;28;20408;-59
2023/10/21 13:58:11;;;;;;;;;;;17.50;1.00;;;;;;4970951;28;20060;-57
2023/10/21 14:00:38;;;;;;;;;;;17.40;1.00;;;;;;4973067;28;19936;-59
2023/10/21 14:03:09;;;;;;;;;;;17.40;1.00;;;;;;4974558;28;20392;-59
2023/10/21 14:05:44;;;;;;;;;;;17.40;1.00;;;;;;4972171;28;20049;-59
2023/10/21 14:08:13;;;;;;;;;;;17.40;1.00;;;;;;4973754;28;19930;-58
2023/10/21 14:10:43;;;;;;;;;;;17.50;1.00;;;;;;4972696;28;19933;-58
2023/10/21 14:13:19;;;;;;;;;;;17.50;1.00;;;;;;4973309;28;19934;-59
2023/10/21 14:15:48;;;;;;;;;;;17.50;1.00;;;;;;4973241;28;19925;-59
2023/10/21 14:18:15;;;;;;;;;;;17.40;1.00;;;;;;4973453;28;19933;-59
2023/10/21 14:20:43;;;;;;;;;;;17.40;1.00;;;;;;4970437;28;20386;-57
2023/10/21 14:23:10;;;;;;;;;;;17.40;1.00;;;;;;4971726;28;19933;-59
2023/10/21 14:25:38;;;;;;;;;;;17.50;1.00;;;;;;4975280;28;19930;-59
2023/10/21 14:28:13;;;;;;;;;;;17.50;1.00;;;;;;4975065;28;19989;-57
2023/10/21 14:30:45;;;;;;;;;;;17.50;1.00;;;;;;4972133;28;19932;-57
2023/10/21 14:33:13;;;;;;;;;;;17.50;1.00;;;;;;4969457;28;19934;-57
2023/10/21 14:35:41;;;;;;;;;;;17.50;1.00;;;;;;4973178;28;20395;-57
2023/10/21 14:38:08;;;;;;;;;;;17.40;1.00;;;;;;4971822;28;20025;-57
2023/10/21 14:40:36;;;;;;;;;;;17.50;1.00;;;;;;4978563;28;19932;-57
2023/10/21 14:43:03;;;;;;;;;;;17.40;1.00;;;;;;4977501;28;19929;-59
2023/10/21 14:45:31;;;;;;;;;;;17.40;1.00;;;;;;4976560;28;19929;-59
2023/10/21 14:47:58;;;;;;;;;;;17.50;1.00;;;;;;4975922;28;20024;-57
2023/10/21 14:50:27;;;;;;;;;;;17.40;1.00;;;;;;4958346;28;19961;-59
2023/10/21 14:52:54;;;;;;;;;;;17.50;1.00;;;;;;4979664;28;19929;-59
2023/10/21 14:55:21;;;;;;;;;;;17.50;1.00;;;;;;4976487;28;19926;-58
2023/10/21 14:58:01;;;;;;;;;;;17.50;1.00;;;;;;4976338;28;20352;-59
2023/10/21 15:00:28;;;;;;;;;;;17.40;1.00;;;;;;4973573;28;19926;-59
2023/10/21 15:02:58;;;;;;;;;;;17.40;1.00;;;;;;4975974;28;19941;-58
2023/10/21 15:05:25;;;;;;;;;;;17.50;1.00;;;;;;4977183;28;20400;-58
2023/10/21 15:07:52;;;;;;;;;;;17.40;1.00;;;;;;4975683;28;19981;-58
2023/10/21 15:10:20;;;;;;;;;;;17.50;1.00;;;;;;4979743;28;19926;-59
2023/10/21 15:12:47;;;;;;;;;;;17.40;1.00;;;;;;4957840;28;19926;-59
2023/10/21 15:15:14;;;;;;;;;;;17.40;1.00;;;;;;4981102;28;19937;-58